OMRK

Ras Al Khaimah International Airport

Ras Al Khaimah, United Arab Emirates
TAF OMRK 151057Z 1512/1618 01010KT 8000 NSC BECMG 1516/1518 VRB02KT BECMG 1607/1609 34012KT BECMG 1616/1618 VRB02KT
Issued Valid From Valid To
Aug-15 @ 10:57 UTC
(2 hours ago)
Aug-15 @ 12:00 UTC
(39 minutes ago)
Aug-16 @ 18:00 UTC
(-1 days ago)
Aug-15 @ 12:00 to Aug-15 @ 16:00
TAF OMRK 151057Z 1512/1618 01010KT 8000 NSC
Wind Visibility Clouds
10° at 10 knots 7,998 meters
  • No significant clouds
Becoming Aug-15 @ 16:00 to Aug-16 @ 07:00
BECMG 1516/1518 VRB02KT
Wind Visibility Clouds
Variable at 2 knots 7,998 meters
  • No significant clouds
Becoming Aug-16 @ 07:00 to Aug-16 @ 16:00
BECMG 1607/1609 34012KT
Wind Visibility Clouds
340° at 12 knots 7,998 meters
  • No significant clouds
Becoming Aug-16 @ 16:00 to Aug-16 @ 18:00
BECMG 1616/1618 VRB02KT
Wind Visibility Clouds
Variable at 2 knots 7,998 meters
  • No significant clouds
TAF OMRK 151057Z 1512/1618 01010KT 8000 NSC BECMG 1516/1518 VRB02KT BECMG 1607/1609 34012KT BECMG 1616/1618 VRB02KT
Issued Aug-15 @ 10:57 UTC
(2 hours ago)
Valid From Aug-15 @ 12:00 UTC
(39 minutes ago)
Valid To Aug-16 @ 18:00 UTC
(-1 days ago)
Aug-15 @ 12:00 - Aug-15 @ 16:00
Wind Visibility
10° at 10 knots 7,998 meters
Clouds
  • No significant clouds
Becoming Aug-15 @ 16:00 - Aug-16 @ 07:00
Wind Visibility
Variable at 2 knots 7,998 meters
Clouds
  • No significant clouds
Becoming Aug-16 @ 07:00 - Aug-16 @ 16:00
Wind Visibility
340° at 12 knots 7,998 meters
Clouds
  • No significant clouds
Becoming Aug-16 @ 16:00 - Aug-16 @ 18:00
Wind Visibility
Variable at 2 knots 7,998 meters
Clouds
  • No significant clouds